Dades meteomassalio
Diari Summary for Noviembre 15, 2017 Units:  Metric    English   Both
« Previous Day
Next Day »
Diari Semanal Mensual Anual Personalitzat
  Maxima: Minima: Mijana:
Temperatura: -17.8 °C -19.9 °C -16.2 °C
Rosada: -17.8 °C -22.7 °C -21.1 °C
Humitat: Humidity % 31 % 55 %
Velocitat del vent: 0 km/h 0 km/h 3.1 km/h
Racha vent: 0 km/h - -
Vent:- - WSW
Pressio: 0 hPa 34591.4 hPa -
Pluja: 0 mm    
Historical Graphs
 
 
Tabular Data for Noviembre 15, 2017
Time Temperature Dew Point Pressure Wind Wind Speed Wind Gust Humidity Rainfall Rate (Hourly) solar Conditions
-17.8 °C -17.8 °C 0 hPa Calm     Humidity % 0 mm SolarRadiationWatts/m^2 W/m2 Conditions
00:00 -19 °C -22.6 °C 34703.1 hPa Calm     62 % 0 mm 0.0 W/m2 CLR
00:05 -19 °C -22.4 °C 34703.1 hPa WSW 11.9 km/h 11.9 km/h 63 % 0 mm 0.0 W/m2 CLR
00:10 -19.3 °C -22.4 °C 34703.1 hPa WSW 11.9 km/h 11.9 km/h 65 % 0 mm 0.0 W/m2 CLR
00:15 -19.3 °C -22.7 °C 34703.1 hPa Calm   0.3 km/h 63 % 0 mm 0.0 W/m2 CLR
00:20 -19.3 °C -22.7 °C 34703.1 hPa Calm     63 % 0 mm 0.0 W/m2 CLR
00:25 -19.3 °C -22.6 °C 34716.7 hPa Calm     64 % 0 mm 0.0 W/m2 CLR
00:30 -19.3 °C -22.4 °C 34716.7 hPa Calm     65 % 0 mm 0.0 W/m2 CLR
00:35 -19.3 °C -22.4 °C 34716.7 hPa Calm     66 % 0 mm 0.0 W/m2 CLR
00:40 -19.3 °C -22.4 °C 34716.7 hPa Calm     66 % 0 mm 0.0 W/m2 CLR
00:45 -19.3 °C -22.4 °C 34703.1 hPa Calm     66 % 0 mm 0.0 W/m2 CLR
00:50 -19.3 °C -22.3 °C 34703.1 hPa Calm     67 % 0 mm 0.0 W/m2 CLR
00:55 -19.3 °C -22.3 °C 34703.1 hPa SW 6 km/h   67 % 0 mm 0.0 W/m2 CLR
01:00 -19.3 °C -22.3 °C 34703.1 hPa Calm     67 % 0 mm 0.0 W/m2 CLR
01:05 -19.3 °C -22.2 °C 34703.1 hPa WSW 6 km/h 6 km/h 68 % 0 mm 0.0 W/m2 CLR
01:10 -19.3 °C -22.2 °C 34703.1 hPa WSW 9 km/h 9 km/h 68 % 0 mm 0.0 W/m2 CLR
01:15 -19.3 °C -22.2 °C 34703.1 hPa South 9 km/h 9 km/h 68 % 0 mm 0.0 W/m2 CLR
01:20 -19.3 °C -22.1 °C 34716.7 hPa Calm     69 % 0 mm 0.0 W/m2 CLR
01:25 -19.3 °C -22.2 °C 34716.7 hPa Calm     68 % 0 mm 0.0 W/m2 CLR
01:30 -19.3 °C -22.2 °C 34716.7 hPa Calm     68 % 0 mm 0.0 W/m2 CLR
01:35 -19.6 °C -22.4 °C 34716.7 hPa Calm     68 % 0 mm 0.0 W/m2 CLR
01:40 -19.6 °C -22.4 °C 34716.7 hPa Calm     68 % 0 mm 0.0 W/m2 CLR
01:45 -19.6 °C -22.3 °C 34703.1 hPa Calm     69 % 0 mm 0.0 W/m2 CLR
01:50 -19.6 °C -22.4 °C 34703.1 hPa Calm     68 % 0 mm 0.0 W/m2 CLR
01:55 -19.6 °C -22.3 °C 34703.1 hPa Calm   0.5 km/h 69 % 0 mm 0.0 W/m2 CLR
02:00 -19.6 °C -22.3 °C 34703.1 hPa WSW 7.7 km/h 7.7 km/h 69 % 0 mm 0.0 W/m2 CLR
02:05 -19.6 °C -22.2 °C 34703.1 hPa West 11.9 km/h 11.9 km/h 70 % 0 mm 0.0 W/m2 CLR
02:10 -19.6 °C -22.2 °C 34703.1 hPa West 3.1 km/h 3.1 km/h 70 % 0 mm 0.0 W/m2 CLR
02:15 -19.6 °C -22.2 °C 34703.1 hPa West 9 km/h 9 km/h 70 % 0 mm 0.0 W/m2 CLR
02:20 -19.6 °C -22.1 °C 34703.1 hPa West 6 km/h 6 km/h 71 % 0 mm 0.0 W/m2 CLR
02:25 -19.6 °C -22.1 °C 34703.1 hPa Calm     71 % 0 mm 0.0 W/m2 CLR
02:30 -19.6 °C -22.1 °C 34703.1 hPa Calm     71 % 0 mm 0.0 W/m2 CLR
02:35 -19.9 °C -22.3 °C 34703.1 hPa Calm     72 % 0 mm 0.0 W/m2 CLR
02:40 -19.6 °C -22.1 °C 34703.1 hPa West 6 km/h 6 km/h 72 % 0 mm 0.0 W/m2 CLR
02:45 -19.6 °C -22.1 °C 34703.1 hPa West 3.1 km/h 3.1 km/h 72 % 0 mm 0.0 W/m2 CLR
02:50 -19.6 °C -22.1 °C 34703.1 hPa West 11.9 km/h 11.9 km/h 72 % 0 mm 0.0 W/m2 CLR
02:55 -19.9 °C -22.3 °C 34703.1 hPa West 10.3 km/h 10.3 km/h 72 % 0 mm 0.0 W/m2 CLR
03:00 -19.9 °C -22.4 °C 34703.1 hPa Calm     71 % 0 mm 0.0 W/m2 CLR
03:05 -19.9 °C -22.4 °C 34703.1 hPa West 11.9 km/h 11.9 km/h 71 % 0 mm 0.0 W/m2 CLR
03:10 -19.9 °C -22.4 °C 34703.1 hPa Calm     71 % 0 mm 0.0 W/m2 CLR
03:15 -19.9 °C -22.4 °C 34703.1 hPa Calm     71 % 0 mm 0.0 W/m2 CLR
03:20 -19.9 °C -22.4 °C 34703.1 hPa Calm     71 % 0 mm 0.0 W/m2 CLR
03:25 -19.9 °C -22.4 °C 34703.1 hPa Calm     71 % 0 mm 0.0 W/m2 CLR
03:30 -19.9 °C -22.4 °C 34703.1 hPa Calm     71 % 0 mm 0.0 W/m2 CLR
03:35 -19.9 °C -22.4 °C 34703.1 hPa West 3.1 km/h 3.1 km/h 71 % 0 mm 0.0 W/m2 CLR
03:40 -19.9 °C -22.4 °C 34693 hPa Calm     71 % 0 mm 0.0 W/m2 CLR
03:45 -19.9 °C -22.4 °C 34693 hPa Calm     71 % 0 mm 0.0 W/m2 CLR
03:50 -19.9 °C -22.3 °C 34693 hPa Calm     72 % 0 mm 0.0 W/m2 CLR
03:55 -19.9 °C -22.4 °C 34693 hPa Calm     71 % 0 mm 0.0 W/m2 CLR
04:01 -19.9 °C -22.3 °C 34693 hPa Calm     72 % 0 mm 0.0 W/m2 CLR
04:11 -19.9 °C -22.3 °C 34693 hPa Calm     72 % 0 mm 0.0 W/m2 CLR
04:16 -19.9 °C -22.4 °C 34693 hPa Calm     71 % 0 mm 0.0 W/m2 CLR
04:21 -19.9 °C -22.3 °C 34693 hPa Calm     72 % 0 mm 0.0 W/m2 CLR
04:22 -19.9 °C -22.3 °C 34693 hPa Calm     72 % 0 mm 0.0 W/m2 CLR
04:24 -19.9 °C -22.3 °C 34682.8 hPa Calm     72 % 0 mm 0.0 W/m2 CLR
04:27 -19.9 °C -22.3 °C 34682.8 hPa Calm     72 % 0 mm 0.0 W/m2 CLR
04:32 -19.6 °C -21.9 °C 34693 hPa Calm     73 % 0 mm 0.0 W/m2 CLR
04:37 -19.6 °C -21.9 °C 34682.8 hPa Calm     73 % 0 mm 0.0 W/m2 CLR
04:42 -19.6 °C -21.8 °C 34682.8 hPa Calm     74 % 0 mm 0.0 W/m2 CLR
04:47 -19.9 °C -22.1 °C 34682.8 hPa West 6 km/h 6 km/h 74 % 0 mm 0.0 W/m2 CLR
04:52 -19.9 °C -22.1 °C 34682.8 hPa Calm     74 % 0 mm 0.0 W/m2 CLR
04:57 -19.9 °C -22.2 °C 34682.8 hPa Calm     73 % 0 mm 0.0 W/m2 CLR
05:02 -19.9 °C -22.2 °C 34682.8 hPa Calm     73 % 0 mm 0.0 W/m2 CLR
05:07 -19.9 °C -22.2 °C 34682.8 hPa Calm     73 % 0 mm 0.0 W/m2 CLR
05:12 -19.9 °C -22.1 °C 34682.8 hPa Calm     74 % 0 mm 0.0 W/m2 CLR
05:17 -19.9 °C -22.1 °C 34682.8 hPa Calm     74 % 0 mm 0.0 W/m2 CLR
05:22 -19.9 °C -22.1 °C 34682.8 hPa Calm     74 % 0 mm 0.0 W/m2 CLR
05:27 -19.9 °C -22.1 °C 34682.8 hPa Calm     75 % 0 mm 0.0 W/m2 CLR
05:32 -19.9 °C -22.1 °C 34682.8 hPa Calm     74 % 0 mm 0.0 W/m2 CLR
05:37 -19.9 °C -22.1 °C 34682.8 hPa Calm     74 % 0 mm 0.0 W/m2 CLR
05:42 -19.9 °C -22.1 °C 34682.8 hPa Calm     74 % 0 mm 0.0 W/m2 CLR
05:47 -19.9 °C -22.1 °C 34682.8 hPa Calm     75 % 0 mm 0.0 W/m2 CLR
05:52 -19.9 °C -22.1 °C 34682.8 hPa Calm     74 % 0 mm 0.0 W/m2 CLR
05:57 -19.9 °C -22.1 °C 34682.8 hPa Calm     74 % 0 mm 0.0 W/m2 CLR
06:02 -19.9 °C -21.9 °C 34682.8 hPa Calm     76 % 0 mm 0.0 W/m2 CLR
06:07 -19.9 °C -21.9 °C 34682.8 hPa West 11.9 km/h 11.9 km/h 76 % 0 mm 0.0 W/m2 CLR
06:12 -19.9 °C -22.1 °C 34682.8 hPa West 11.9 km/h 11.9 km/h 75 % 0 mm 0.0 W/m2 CLR
06:17 -19.9 °C -22.1 °C 34682.8 hPa West 9 km/h 9 km/h 75 % 0 mm 0.0 W/m2 CLR
06:22 -19.9 °C -22.1 °C 34682.8 hPa WSW 9 km/h 9 km/h 75 % 0 mm 0.0 W/m2 CLR
06:27 -19.6 °C -21.8 °C 34682.8 hPa SW 6 km/h   74 % 0 mm 0.0 W/m2 CLR
06:32 -19.6 °C -21.8 °C 34682.8 hPa Calm     74 % 0 mm 0.0 W/m2 CLR
06:37 -19.6 °C -21.7 °C 34682.8 hPa WSW 3.1 km/h   75 % 0 mm 0.0 W/m2 CLR
06:42 -19.6 °C -21.8 °C 34682.8 hPa WSW 6 km/h 6 km/h 74 % 0 mm 0.0 W/m2 CLR
06:47 -19.6 °C -21.7 °C 34682.8 hPa WSW 9 km/h 9 km/h 75 % 0 mm 0.0 W/m2 CLR
06:52 -19.3 °C -21.4 °C 34682.8 hPa WSW 5.1 km/h 5.1 km/h 75 % 0 mm 0.0 W/m2 CLR
06:57 -19.6 °C -21.7 °C 34682.8 hPa WSW 2.6 km/h 2.6 km/h 75 % 0 mm 0.0 W/m2 CLR
07:02 -19.6 °C -21.6 °C 34693 hPa Calm     76 % 0 mm 0.0 W/m2 CLR
07:07 -19.6 °C -21.6 °C 34693 hPa Calm     77 % 0 mm 0.0 W/m2 CLR
07:12 -19.6 °C -21.6 °C 34693 hPa WSW 9 km/h 9 km/h 77 % 0 mm 0.0 W/m2 CLR
07:17 -19.6 °C -21.6 °C 34693 hPa WSW 9 km/h   77 % 0 mm 0.0 W/m2 CLR
07:22 -19.6 °C -21.6 °C 34693 hPa WSW 11.9 km/h 11.9 km/h 77 % 0 mm 0.0 W/m2 CLR
07:27 -19.6 °C -21.6 °C 34693 hPa WSW 7.7 km/h 7.7 km/h 77 % 0 mm 0.0 W/m2 CLR
07:32 -19.6 °C -21.6 °C 34693 hPa WSW 9 km/h 9 km/h 77 % 0 mm 0.0 W/m2 CLR
07:37 -19.6 °C -21.6 °C 34693 hPa WSW 3.1 km/h   77 % 0 mm 5.0 W/m2 CLR
07:42 -19.9 °C -21.9 °C 34693 hPa Calm   0.5 km/h 76 % 0 mm 11.0 W/m2 OVC
07:47 -19.9 °C -21.9 °C 34693 hPa Calm     76 % 0 mm 12.0 W/m2 OVC
07:48 -19.9 °C -21.9 °C 34693 hPa Calm     76 % 0 mm 12.0 W/m2 OVC
07:53 -19.9 °C -21.8 °C 34693 hPa Calm     77 % 0 mm 14.0 W/m2 OVC
07:58 -19.9 °C -21.8 °C 34693 hPa WSW 5.1 km/h 5.1 km/h 77 % 0 mm 19.0 W/m2 OVC
08:03 -19.6 °C -21.6 °C 34693 hPa WSW 6 km/h 6 km/h 77 % 0 mm 23.0 W/m2 OVC
08:08 -19.6 °C -21.6 °C 34703.1 hPa Calm     77 % 0 mm 32.0 W/m2 OVC
08:13 -19.6 °C -21.6 °C 34703.1 hPa Calm     77 % 0 mm 39.0 W/m2 OVC
08:18 -19.6 °C -21.6 °C 34703.1 hPa Calm     76 % 0 mm 51.0 W/m2 OVC
08:23 -19.3 °C -21.4 °C 34703.1 hPa Calm     75 % 0 mm 70.0 W/m2 OVC
08:28 -19.3 °C -21.6 °C 34703.1 hPa Calm     73 % 0 mm 86.0 W/m2 OVC
08:33 -19.3 °C -21.6 °C 34703.1 hPa Calm     73 % 0 mm 84.0 W/m2 OVC
08:38 -19 °C -21.3 °C 34703.1 hPa Calm     73 % 0 mm 107.0 W/m2 OVC
08:43 -18.7 °C -21.2 °C 34703.1 hPa Calm     72 % 0 mm 86.0 W/m2 OVC
08:48 -18.7 °C -21.2 °C 34703.1 hPa Calm     71 % 0 mm 107.0 W/m2 OVC
08:53 -18.7 °C -21.3 °C 34703.1 hPa Calm     70 % 0 mm 102.0 W/m2 SCT
08:58 -18.4 °C -21.1 °C 34693 hPa Calm     70 % 0 mm 109.0 W/m2 CLR
09:03 -18.4 °C -21.2 °C 34703.1 hPa Calm     69 % 0 mm 111.0 W/m2 CLR
09:08 -18.1 °C -20.9 °C 34703.1 hPa Calm     69 % 0 mm 118.0 W/m2 CLR
09:13 -18.1 °C -20.9 °C 34703.1 hPa Calm     68 % 0 mm 120.0 W/m2 CLR
09:18 -17.8 °C -20.8 °C 34703.1 hPa Calm     67 % 0 mm 139.0 W/m2 CLR
09:23 -17.8 °C -20.8 °C 34703.1 hPa Calm     67 % 0 mm 156.0 W/m2 CLR
09:28 -17.4 °C -20.6 °C 34703.1 hPa Calm     66 % 0 mm 181.0 W/m2 CLR
09:33 -17.2 °C -20.4 °C 34703.1 hPa Calm     65 % 0 mm 262.0 W/m2 CLR
09:38 -17.2 °C -20.4 °C 34703.1 hPa Calm     65 % 0 mm 285.0 W/m2 CLR
09:43 -16.6 °C -20.1 °C 34703.1 hPa Calm     63 % 0 mm 225.0 W/m2 CLR
09:48 -16.2 °C -19.9 °C 34703.1 hPa Calm     62 % 0 mm 221.0 W/m2 CLR
09:53 -16.2 °C -20 °C 34703.1 hPa Calm     61 % 0 mm 207.0 W/m2 CLR
09:58 -16.2 °C -20 °C 34703.1 hPa Calm     61 % 0 mm 207.0 W/m2 CLR
10:01 -15.9 °C -19.7 °C 34703.1 hPa Calm     61 % 0 mm 243.0 W/m2 CLR
10:06 -15.6 °C -19.6 °C 34703.1 hPa Calm     60 % 0 mm 271.0 W/m2 CLR
10:11 -15.3 °C -19.4 °C 34703.1 hPa Calm     59 % 0 mm 309.0 W/m2 CLR
10:16 -15 °C -19.2 °C 34703.1 hPa Calm     58 % 0 mm 313.0 W/m2 CLR
10:21 -14.7 °C -19.1 °C 34703.1 hPa Calm     57 % 0 mm 359.0 W/m2 CLR
10:26 -14.7 °C -19.3 °C 34703.1 hPa Calm     55 % 0 mm 299.0 W/m2 CLR
10:31 -14.4 °C -19.2 °C 34703.1 hPa Calm     54 % 0 mm 341.0 W/m2 CLR
10:36 -14.1 °C -19 °C 34703.1 hPa Calm     53 % 0 mm 348.0 W/m2 CLR
10:41 -13.8 °C -18.9 °C 34703.1 hPa Calm     52 % 0 mm 278.0 W/m2 CLR
10:46 -13.4 °C -18.6 °C 34703.1 hPa Calm     52 % 0 mm 353.0 W/m2 CLR
10:51 -13.4 °C -18.9 °C 34703.1 hPa Calm     50 % 0 mm 339.0 W/m2 CLR
11:01 -12.8 °C -18.8 °C 34703.1 hPa Calm     47 % 0 mm 287.0 W/m2 CLR
11:06 -12.8 °C -19.1 °C 34703.1 hPa Calm     45 % 0 mm 360.0 W/m2 CLR
11:11 -12.6 °C -19 °C 34703.1 hPa Calm     44 % 0 mm 301.0 W/m2 CLR
11:21 -12.2 °C -19.3 °C 34693 hPa NW 17.9 km/h 17.9 km/h 41 % 0 mm 323.0 W/m2 CLR
11:26 -11.9 °C -19.2 °C 34693 hPa NNE 18.2 km/h 18.2 km/h 40 % 0 mm 269.0 W/m2 CLR
11:31 -11.9 °C -19.3 °C 34703.1 hPa NNW 17.9 km/h 17.9 km/h 39 % 0 mm 348.0 W/m2 CLR
11:36 -11.6 °C -19.1 °C 34693 hPa NW 20.9 km/h 20.9 km/h 39 % 0 mm 367.0 W/m2 CLR
11:41 -11.6 °C -19.3 °C 34693 hPa NNW 17.9 km/h 17.9 km/h 38 % 0 mm 452.0 W/m2 CLR
11:46 -11.3 °C -19 °C 34693 hPa NNW 18.2 km/h 18.2 km/h 38 % 0 mm 445.0 W/m2 CLR
11:51 -11.3 °C -19.2 °C 34693 hPa NW 29.8 km/h 29.8 km/h 37 % 0 mm 418.0 W/m2 CLR
11:56 -11.3 °C -19.4 °C 34693 hPa NW 23.8 km/h 23.8 km/h 36 % 0 mm 415.0 W/m2 CLR
12:01 -11.3 °C -19.4 °C 34693 hPa NW 20.9 km/h 20.9 km/h 36 % 0 mm 403.0 W/m2 CLR
12:06 -11.3 °C -19.4 °C 34682.8 hPa NNW 23.8 km/h 23.8 km/h 36 % 0 mm 408.0 W/m2 CLR
12:11 -11.3 °C -19.4 °C 34682.8 hPa North 17.9 km/h 17.9 km/h 36 % 0 mm 269.0 W/m2 CLR
12:16 -11.3 °C -19.6 °C 34682.8 hPa NW 20.9 km/h 20.9 km/h 35 % 0 mm 311.0 W/m2 CLR
12:21 -11.3 °C -19.6 °C 34682.8 hPa NW 5.1 km/h 5.1 km/h 35 % 0 mm 338.0 W/m2 CLR
12:26 -11.3 °C -19.6 °C 34669.3 hPa North 20.9 km/h 20.9 km/h 35 % 0 mm 374.0 W/m2 CLR
12:31 -11.3 °C -19.6 °C 34669.3 hPa NNW 18.2 km/h 18.2 km/h 35 % 0 mm 471.0 W/m2 CLR
12:36 -11 °C -19.6 °C 34669.3 hPa NNE 23.8 km/h 23.8 km/h 34 % 0 mm 508.0 W/m2 CLR
12:41 -11 °C -19.6 °C 34659.1 hPa NNW 23.8 km/h 23.8 km/h 34 % 0 mm 478.0 W/m2 CLR
12:46 -11 °C -19.6 °C 34659.1 hPa North 23.8 km/h 23.8 km/h 34 % 0 mm 541.0 W/m2 CLR
12:51 -11 °C -19.3 °C 34659.1 hPa North 20.9 km/h 20.9 km/h 35 % 0 mm 540.0 W/m2 CLR
12:52 -11 °C -19.6 °C 34659.1 hPa NNE 20.9 km/h 20.9 km/h 34 % 0 mm 538.0 W/m2 CLR
12:57 -10.7 °C -19.5 °C 34659.1 hPa NW 11.9 km/h 11.9 km/h 33 % 0 mm 522.0 W/m2 CLR
13:02 -10.7 °C -19.5 °C 34645.6 hPa North 26.9 km/h 26.9 km/h 33 % 0 mm 520.0 W/m2 CLR
13:07 -10.7 °C -19.5 °C 34645.6 hPa Calm     33 % 0 mm 517.0 W/m2 CLR
13:12 -10.7 °C -19.5 °C 34635.4 hPa North 23.8 km/h 23.8 km/h 33 % 0 mm 515.0 W/m2 CLR
13:17 -10.7 °C -19.8 °C 34635.4 hPa NNW 20.9 km/h 20.9 km/h 32 % 0 mm 513.0 W/m2 CLR
13:22 -10.7 °C -19.5 °C 34635.4 hPa Calm     33 % 0 mm 508.0 W/m2 CLR
13:28 -10.4 °C -19.5 °C 34635.4 hPa Calm     32 % 0 mm 499.0 W/m2 CLR
13:32 -10.4 °C -19.5 °C 34635.4 hPa NNW 20.9 km/h 20.9 km/h 32 % 0 mm 475.0 W/m2 CLR
13:33 -10.4 °C -19.5 °C 34635.4 hPa NNW 20.9 km/h 20.9 km/h 32 % 0 mm 473.0 W/m2 CLR
13:38 -10.4 °C -19.5 °C 34625.2 hPa NNW 17.9 km/h 17.9 km/h 32 % 0 mm 476.0 W/m2 CLR
13:43 -10.4 °C -19.5 °C 34625.2 hPa Calm     32 % 0 mm 490.0 W/m2 CLR
13:48 -10.1 °C -19.2 °C 34625.2 hPa NW 18.2 km/h 18.2 km/h 32 % 0 mm 476.0 W/m2 CLR
13:53 -10.4 °C -19.5 °C 34625.2 hPa Calm     32 % 0 mm 413.0 W/m2 CLR
13:58 -10.4 °C -19.5 °C 34625.2 hPa Calm     32 % 0 mm 462.0 W/m2 CLR
14:03 -10.4 °C -19.5 °C 34611.7 hPa Calm     32 % 0 mm 475.0 W/m2 CLR
14:08 -10.4 °C -19.2 °C 34611.7 hPa Calm     33 % 0 mm 441.0 W/m2 CLR
14:13 -10.4 °C -19.5 °C 34611.7 hPa Calm     32 % 0 mm 457.0 W/m2 CLR
14:18 -10.4 °C -19.5 °C 34611.7 hPa ENE 6 km/h   32 % 0 mm 464.0 W/m2 CLR
14:23 -10.1 °C -19.2 °C 34601.5 hPa NE 20.9 km/h 20.9 km/h 32 % 0 mm 424.0 W/m2 CLR
14:28 -10.1 °C -19.4 °C 34611.7 hPa Calm     31 % 0 mm 345.0 W/m2 CLR
14:33 -10.4 °C -19.7 °C 34611.7 hPa Calm     31 % 0 mm 408.0 W/m2 CLR
14:39 -10.4 °C -19.5 °C 34601.5 hPa Calm     32 % 0 mm 401.0 W/m2 CLR
14:43 -10.4 °C -19.7 °C 34601.5 hPa Calm     31 % 0 mm 417.0 W/m2 CLR
14:49 -10.1 °C -19.4 °C 34601.5 hPa Calm     31 % 0 mm 362.0 W/m2 CLR
14:54 -10.1 °C -19.4 °C 34601.5 hPa Calm     31 % 0 mm 367.0 W/m2 CLR
14:59 -10.1 °C -19.4 °C 34601.5 hPa East 3.1 km/h   31 % 0 mm 346.0 W/m2 CLR
15:04 -10.1 °C -19.4 °C 34601.5 hPa East 3.1 km/h   31 % 0 mm 297.0 W/m2 CLR
15:09 -10.4 °C -19.5 °C 34601.5 hPa Calm     32 % 0 mm 297.0 W/m2 CLR
15:14 -10.4 °C -19.7 °C 34601.5 hPa Calm     31 % 0 mm 350.0 W/m2 CLR
15:19 -10.1 °C -19.4 °C 34591.4 hPa Calm     31 % 0 mm 299.0 W/m2 CLR
15:24 -10.1 °C -19.4 °C 34601.5 hPa Calm     31 % 0 mm 260.0 W/m2 CLR
15:29 -10.4 °C -19.7 °C 34591.4 hPa Calm     31 % 0 mm 218.0 W/m2 CLR
15:34 -10.4 °C -19.7 °C 34591.4 hPa Calm     31 % 0 mm 248.0 W/m2 CLR
15:39 -10.4 °C -19.5 °C 34591.4 hPa Calm     32 % 0 mm 239.0 W/m2 CLR
15:44 -10.4 °C -19.5 °C 34591.4 hPa Calm     32 % 0 mm 220.0 W/m2 CLR
15:49 -10.4 °C -19.5 °C 34591.4 hPa Calm     32 % 0 mm 211.0 W/m2 CLR
15:54 -10.4 °C -19.7 °C 34591.4 hPa Calm     31 % 0 mm 206.0 W/m2 CLR
15:59 -10.4 °C -19.7 °C 34591.4 hPa Calm     31 % 0 mm 167.0 W/m2 CLR
16:04 -10.4 °C -19.7 °C 34591.4 hPa Calm     31 % 0 mm 120.0 W/m2 CLR
16:09 -10.7 °C -19.9 °C 34591.4 hPa Calm     31 % 0 mm 107.0 W/m2 CLR
16:14 -10.7 °C -19.8 °C 34591.4 hPa Calm     32 % 0 mm 100.0 W/m2 CLR
16:19 -10.7 °C -19.8 °C 34591.4 hPa Calm     32 % 0 mm 100.0 W/m2 CLR
16:24 -11 °C -20 °C 34591.4 hPa Calm     32 % 0 mm 90.0 W/m2 CLR
16:29 -11 °C -19.8 °C 34591.4 hPa Calm     33 % 0 mm 79.0 W/m2 CLR
16:34 -11.3 °C -20.1 °C 34591.4 hPa Calm     33 % 0 mm 77.0 W/m2 FEW
16:39 -11.3 °C -20.1 °C 34591.4 hPa Calm     33 % 0 mm 65.0 W/m2 FEW
16:44 -11.6 °C -20.3 °C 34591.4 hPa Calm     33 % 0 mm 62.0 W/m2 SCT
16:49 -11.6 °C -20.1 °C 34591.4 hPa Calm     34 % 0 mm 65.0 W/m2 SCT
16:54 -11.9 °C -20.4 °C 34591.4 hPa Calm     34 % 0 mm 54.0 W/m2 SCT
16:59 -11.9 °C -20.2 °C 34591.4 hPa Calm     35 % 0 mm 51.0 W/m2 SCT
17:00 -12.2 °C -20.4 °C 34591.4 hPa Calm     35 % 0 mm 51.0 W/m2 SCT
17:05 -12.2 °C -20.4 °C 34591.4 hPa Calm     35 % 0 mm 44.0 W/m2 BKN
17:10 -12.6 °C -20.7 °C 34591.4 hPa Calm     35 % 0 mm 35.0 W/m2 BKN
17:15 -12.6 °C -20.7 °C 34591.4 hPa Calm     35 % 0 mm 26.0 W/m2 BKN
17:20 -12.8 °C -21 °C 34591.4 hPa Calm     35 % 0 mm 21.0 W/m2 BKN
17:25 -13.2 °C -21.3 °C 34591.4 hPa Calm     35 % 0 mm 14.0 W/m2 BKN
17:30 -13.2 °C -21.3 °C 34591.4 hPa Calm     35 % 0 mm 11.0 W/m2 BKN
17:35 -13.4 °C -21.3 °C 34591.4 hPa Calm     36 % 0 mm 7.0 W/m2 BKN
17:40 -13.8 °C -21.4 °C 34591.4 hPa Calm     37 % 0 mm 0.0 W/m2 OVC
17:45 -13.8 °C -21.4 °C 34591.4 hPa Calm     37 % 0 mm 0.0 W/m2 OVC
17:50 -14.1 °C -21.5 °C 34591.4 hPa Calm     38 % 0 mm 0.0 W/m2 OVC
17:55 -14.1 °C -21.3 °C 34591.4 hPa Calm     39 % 0 mm 0.0 W/m2 CLR
18:00 -14.1 °C -21.1 °C 34591.4 hPa Calm     40 % 0 mm 0.0 W/m2 CLR
18:05 -13.8 °C -20.7 °C 34591.4 hPa Calm     41 % 0 mm 0.0 W/m2 CLR
18:10 -14.1 °C -20.9 °C 34591.4 hPa Calm     41 % 0 mm 0.0 W/m2 CLR
18:15 -14.1 °C -20.9 °C 34591.4 hPa Calm     41 % 0 mm 0.0 W/m2 CLR
18:20 -14.4 °C -21.1 °C 34601.5 hPa Calm     42 % 0 mm 0.0 W/m2 CLR
18:25 -14.7 °C -21.5 °C 34601.5 hPa Calm     41 % 0 mm 0.0 W/m2 CLR
18:30 -14.7 °C -21.2 °C 34601.5 hPa Calm     43 % 0 mm 0.0 W/m2 CLR
18:35 -15 °C -21.4 °C 34601.5 hPa Calm     43 % 0 mm 0.0 W/m2 CLR
18:40 -15.3 °C -21.6 °C 34601.5 hPa Calm     44 % 0 mm 0.0 W/m2 CLR
18:45 -15.3 °C -21.4 °C 34601.5 hPa Calm     45 % 0 mm 0.0 W/m2 CLR
18:50 -15.6 °C -21.7 °C 34611.7 hPa Calm     45 % 0 mm 0.0 W/m2 CLR
18:55 -15.6 °C -21.5 °C 34601.5 hPa Calm     46 % 0 mm 0.0 W/m2 CLR
19:00 -15.6 °C -21.5 °C 34611.7 hPa Calm     46 % 0 mm 0.0 W/m2 CLR
19:05 -15.9 °C -21.6 °C 34611.7 hPa Calm     47 % 0 mm 0.0 W/m2 CLR
19:10 -15.9 °C -21.5 °C 34611.7 hPa Calm     48 % 0 mm 0.0 W/m2 CLR
19:15 -15.9 °C -21.5 °C 34611.7 hPa Calm     48 % 0 mm 0.0 W/m2 CLR
19:20 -16.2 °C -21.6 °C 34611.7 hPa Calm     49 % 0 mm 0.0 W/m2 CLR
19:25 -16.2 °C -21.6 °C 34611.7 hPa Calm     49 % 0 mm 0.0 W/m2 CLR
19:30 -16.6 °C -21.9 °C 34611.7 hPa Calm     49 % 0 mm 0.0 W/m2 CLR
19:35 -16.6 °C -21.8 °C 34611.7 hPa Calm     50 % 0 mm 0.0 W/m2 CLR
19:40 -16.8 °C -21.9 °C 34625.2 hPa Calm     51 % 0 mm 0.0 W/m2 CLR
19:45 -16.8 °C -21.9 °C 34625.2 hPa Calm     51 % 0 mm 0.0 W/m2 CLR
19:50 -16.8 °C -21.9 °C 34625.2 hPa Calm     51 % 0 mm 0.0 W/m2 CLR
19:55 -16.8 °C -21.9 °C 34625.2 hPa Calm     51 % 0 mm 0.0 W/m2 CLR
20:05 -16.6 °C -21.4 °C 34625.2 hPa Calm     52 % 0 mm 0.0 W/m2 CLR
20:10 -16.6 °C -21.4 °C 34625.2 hPa Calm     52 % 0 mm 0.0 W/m2 CLR
20:15 -16.8 °C -21.8 °C 34625.2 hPa Calm     52 % 0 mm 0.0 W/m2 CLR
20:21 -16.8 °C -21.8 °C 34625.2 hPa Calm     52 % 0 mm 0.0 W/m2 CLR
20:23 -16.8 °C -21.8 °C 34635.4 hPa Calm     52 % 0 mm 0.0 W/m2 CLR
20:28 -16.8 °C -21.6 °C 34625.2 hPa Calm     53 % 0 mm 0.0 W/m2 CLR
20:33 -16.8 °C -21.6 °C 34625.2 hPa Calm     53 % 0 mm 0.0 W/m2 CLR
20:38 -16.6 °C -21.2 °C 34625.2 hPa Calm     54 % 0 mm 0.0 W/m2 CLR
20:43 -16.6 °C -21.2 °C 34635.4 hPa Calm     54 % 0 mm 0.0 W/m2 CLR
20:48 -16.6 °C -21.2 °C 34635.4 hPa Calm     54 % 0 mm 0.0 W/m2 CLR
20:53 -16.8 °C -21.3 °C 34635.4 hPa Calm     55 % 0 mm 0.0 W/m2 CLR
20:58 -16.8 °C -21.3 °C 34635.4 hPa Calm     55 % 0 mm 0.0 W/m2 CLR
21:03 -16.8 °C -21.3 °C 34635.4 hPa Calm     55 % 0 mm 0.0 W/m2 CLR
21:08 -16.8 °C -21.3 °C 34635.4 hPa Calm     55 % 0 mm 0.0 W/m2 CLR
21:13 -16.8 °C -21.3 °C 34635.4 hPa Calm     55 % 0 mm 0.0 W/m2 CLR
21:18 -17.2 °C -21.6 °C 34645.6 hPa Calm     55 % 0 mm 0.0 W/m2 CLR
21:23 -17.2 °C -21.6 °C 34645.6 hPa Calm     55 % 0 mm 0.0 W/m2 CLR
21:28 -17.4 °C -21.8 °C 34645.6 hPa Calm     56 % 0 mm 0.0 W/m2 CLR
21:33 -17.4 °C -21.8 °C 34645.6 hPa Calm     56 % 0 mm 0.0 W/m2 CLR
21:38 -17.4 °C -21.7 °C 34645.6 hPa Calm     57 % 0 mm 0.0 W/m2 CLR
21:43 -17.4 °C -21.6 °C 34645.6 hPa Calm     58 % 0 mm 0.0 W/m2 CLR
21:48 -17.2 °C -21.2 °C 34659.1 hPa Calm     58 % 0 mm 0.0 W/m2 CLR
21:53 -17.2 °C -21.1 °C 34659.1 hPa Calm     59 % 0 mm 0.0 W/m2 CLR
21:58 -17.2 °C -21.1 °C 34659.1 hPa Calm     59 % 0 mm 0.0 W/m2 CLR
22:03 -17.4 °C -21.4 °C 34659.1 hPa Calm     59 % 0 mm 0.0 W/m2 CLR
22:08 -17.4 °C -21.4 °C 34659.1 hPa Calm     59 % 0 mm 0.0 W/m2 CLR
22:13 -17.8 °C -21.6 °C 34645.6 hPa Calm     60 % 0 mm 0.0 W/m2 CLR
22:18 -17.4 °C -21.4 °C 34645.6 hPa Calm     59 % 0 mm 0.0 W/m2 CLR
22:23 -17.8 °C -21.7 °C 34645.6 hPa Calm     59 % 0 mm 0.0 W/m2 CLR
22:25 -17.8 °C -21.7 °C 34645.6 hPa Calm     59 % 0 mm 0.0 W/m2 CLR
22:30 -18.1 °C -22 °C 34645.6 hPa Calm     59 % 0 mm 0.0 W/m2 CLR
22:35 -18.1 °C -22 °C 34645.6 hPa Calm     59 % 0 mm 0.0 W/m2 CLR
22:40 -18.4 °C -22.2 °C 34645.6 hPa Calm     60 % 0 mm 0.0 W/m2 CLR
22:45 -18.4 °C -22.2 °C 34645.6 hPa Calm     60 % 0 mm 0.0 W/m2 CLR
22:50 -18.1 °C -21.9 °C 34659.1 hPa Calm     60 % 0 mm 0.0 W/m2 CLR
22:55 -18.4 °C -22.2 °C 34659.1 hPa Calm     60 % 0 mm 0.0 W/m2 CLR
23:00 -18.4 °C -22.2 °C 34659.1 hPa Calm     60 % 0 mm 0.0 W/m2 CLR
23:05 -18.4 °C -22.2 °C 34659.1 hPa Calm     60 % 0 mm 0.0 W/m2 CLR
23:10 -18.4 °C -22.1 °C 34645.6 hPa Calm     61 % 0 mm 0.0 W/m2 CLR
23:15 -18.1 °C -21.8 °C 34659.1 hPa Calm     61 % 0 mm 0.0 W/m2 CLR
23:20 -18.1 °C -21.8 °C 34645.6 hPa Calm     61 % 0 mm 0.0 W/m2 CLR
23:25 -18.1 °C -21.8 °C 34645.6 hPa Calm     61 % 0 mm 0.0 W/m2 CLR
23:30 -18.1 °C -21.8 °C 34659.1 hPa Calm     61 % 0 mm 0.0 W/m2 CLR
23:35 -18.1 °C -21.8 °C 34659.1 hPa Calm     61 % 0 mm 0.0 W/m2 CLR
23:40 -18.1 °C -21.6 °C 34645.6 hPa Calm     62 % 0 mm 0.0 W/m2 CLR
23:45 -18.1 °C -21.6 °C 34645.6 hPa Calm     62 % 0 mm 0.0 W/m2 CLR
23:50 -18.1 °C -21.5 °C 34645.6 hPa Calm     63 % 0 mm 0.0 W/m2 CLR
23:55 -18.1 °C -21.5 °C 34645.6 hPa Calm     63 % 0 mm 0.0 W/m2 CLR
Lo Temps de Massalio
Compliments of Weather Underground - 1.25 mb